Time;durP1;ratioP1;P1;durP2;ratioP2;P2;SDS_P1;SDS_P2;PMS_P1;PMS_P2;Temp;Humidity;BMP_temperature;BMP_pressure;BME280_temperature;BME280_humidity;BME280_pressure;Samples;Min_cycle;Max_cycle;Signal;HPM_P1;HPM_P2
2022/11/26 00:00:00;;;;;;;;;;;;;;;24.41;46.07;95125.00;4872589;29;7317;-61
2022/11/26 00:02:35;;;;;;;;;;;;;;;24.40;45.96;95129.72;4878947;29;9757;-61
2022/11/26 00:05:29;;;;;;;;;;;;;;;24.42;46.18;95121.78;4877719;29;7314;-62
2022/11/26 00:08:19;;;;;;;;;;;;;;;24.41;46.30;95119.50;4897253;29;7023;-62
2022/11/26 00:11:14;;;;;;;;;;;;;;;24.42;46.20;95132.00;4888517;29;8004;-61
2022/11/26 00:13:49;;;;;;;;;;;;;;;24.41;45.80;95131.25;4934198;29;9631;-61
2022/11/26 00:16:17;;;;;;;;;;;;;;;24.42;46.56;95140.25;4920174;28;7269;-62
2022/11/26 00:18:54;;;;;;;;;;;;;;;24.45;45.83;95136.53;4986608;28;7311;-62
2022/11/26 00:21:34;;;;;;;;;;;;;;;24.44;46.04;95146.78;4972034;28;7108;-61
2022/11/26 00:24:25;;;;;;;;;;;;;;;24.43;46.28;95145.25;4977359;28;7046;-61
2022/11/26 00:26:55;;;;;;;;;;;;;;;24.43;46.51;95148.00;5008998;28;9217;-61
2022/11/26 00:29:29;;;;;;;;;;;;;;;24.43;46.76;95159.00;5030191;28;8886;-61
2022/11/26 00:32:02;;;;;;;;;;;;;;;24.41;46.07;95147.00;5021298;28;9223;-61
2022/11/26 00:34:35;;;;;;;;;;;;;;;24.42;46.01;95152.03;5026027;28;7393;-61
2022/11/26 00:37:34;;;;;;;;;;;;;;;24.44;46.37;95151.53;5033843;28;7708;-61
2022/11/26 00:40:05;;;;;;;;;;;;;;;24.42;46.24;95154.00;5015471;28;8983;-61
2022/11/26 00:42:31;;;;;;;;;;;;;;;24.40;46.37;95154.47;5027960;28;8358;-61
2022/11/26 00:45:00;;;;;;;;;;;;;;;24.40;45.96;95143.47;5020783;28;8822;-61
2022/11/26 00:47:37;;;;;;;;;;;;;;;24.39;46.07;95147.47;5030500;28;7278;-61
2022/11/26 00:50:43;;;;;;;;;;;;;;;24.39;45.57;95138.47;5036700;28;7235;-61
2022/11/26 00:53:18;;;;;;;;;;;;;;;24.38;46.31;95145.97;5000239;28;7063;-61
2022/11/26 00:55:53;;;;;;;;;;;;;;;24.37;45.99;95147.22;4995073;28;8620;-61
2022/11/26 00:58:36;;;;;;;;;;;;;;;24.39;46.21;95144.72;4990164;28;7110;-62
2022/11/26 01:01:16;;;;;;;;;;;;;;;24.37;46.57;95147.22;4996292;28;7026;-61
2022/11/26 01:03:54;;;;;;;;;;;;;;;24.39;46.12;95160.47;4988526;28;7487;-61
2022/11/26 01:06:27;;;;;;;;;;;;;;;24.39;46.25;95155.72;5010924;28;10082;-61
2022/11/26 01:08:56;;;;;;;;;;;;;;;24.37;46.57;95152.72;4993372;28;7263;-61
2022/11/26 01:11:24;;;;;;;;;;;;;;;24.37;45.89;95152.72;4986587;28;7251;-61
2022/11/26 01:14:15;;;;;;;;;;;;;;;24.36;45.82;95144.97;5010184;28;7129;-61
2022/11/26 01:16:43;;;;;;;;;;;;;;;24.38;46.42;95153.47;5008359;28;9276;-61
2022/11/26 01:19:12;;;;;;;;;;;;;;;24.36;45.69;95159.44;5002962;28;7054;-61
2022/11/26 01:22:05;;;;;;;;;;;;;;;24.38;45.76;95164.47;4991664;28;7016;-61
2022/11/26 01:24:39;;;;;;;;;;;;;;;24.36;46.00;95170.44;4985573;28;7033;-61
2022/11/26 01:27:11;;;;;;;;;;;;;;;24.36;46.01;95175.94;5018867;28;8911;-61
2022/11/26 01:29:56;;;;;;;;;;;;;;;24.37;46.50;95177.47;5022018;28;7035;-61
2022/11/26 01:32:43;;;;;;;;;;;;;;;24.36;46.17;95181.44;5015554;28;8296;-61
2022/11/26 01:35:20;;;;;;;;;;;;;;;24.36;46.01;95184.19;5029069;28;7232;-61
2022/11/26 01:37:48;;;;;;;;;;;;;;;24.38;46.07;95198.19;5033646;28;7017;-61
2022/11/26 01:40:54;;;;;;;;;;;;;;;24.39;46.67;95196.97;5024676;28;7216;-61
2022/11/26 01:43:32;;;;;;;;;;;;;;;24.38;46.31;95189.94;5021467;28;9347;-61
2022/11/26 01:46:00;;;;;;;;;;;;;;;24.37;46.28;95202.19;5020622;28;7096;-61
2022/11/26 01:48:32;;;;;;;;;;;;;;;24.38;46.10;95209.19;5019330;28;6970;-61
2022/11/26 01:51:03;;;;;;;;;;;;;;;24.37;45.18;95198.69;5028832;28;9444;-61
2022/11/26 01:53:53;;;;;;;;;;;;;;;24.35;45.99;95204.69;5018188;28;7063;-61
2022/11/26 01:56:39;;;;;;;;;;;;;;;24.34;45.75;95205.16;5012341;28;8245;-61
2022/11/26 01:59:23;;;;;;;;;;;;;;;24.35;46.40;95214.91;5018439;28;8589;-61
2022/11/26 02:02:17;;;;;;;;;;;;;;;24.36;46.32;95216.44;5033338;28;7251;-61
2022/11/26 02:04:52;;;;;;;;;;;;;;;24.36;46.17;95217.19;5012721;28;8544;-61
2022/11/26 02:07:27;;;;;;;;;;;;;;;24.35;46.25;95215.69;5028427;28;7254;-61
2022/11/26 02:10:09;;;;;;;;;;;;;;;24.35;46.15;95223.16;5013967;28;8406;-61
2022/11/26 02:12:36;;;;;;;;;;;;;;;24.32;46.31;95222.13;5006913;28;9199;-61
2022/11/26 02:15:20;;;;;;;;;;;;;;;24.34;45.75;95230.66;5011964;28;7361;-61
2022/11/26 02:18:00;;;;;;;;;;;;;;;24.33;45.97;95231.91;5012532;28;10158;-61
2022/11/26 02:21:00;;;;;;;;;;;;;;;24.35;46.73;95236.91;5009966;28;8830;-61
2022/11/26 02:24:15;;;;;;;;;;;;;;;24.35;46.33;95240.41;5027196;28;7167;-61
2022/11/26 02:27:00;;;;;;;;;;;;;;;24.35;45.72;95240.41;5027844;28;7410;-61
2022/11/26 02:30:00;;;;;;;;;;;;;;;24.35;46.41;95242.41;5011411;28;7184;-61
2022/11/26 02:33:01;;;;;;;;;;;;;;;24.34;46.30;95249.13;5008508;28;9583;-61
2022/11/26 02:35:44;;;;;;;;;;;;;;;24.33;45.88;95256.66;4951028;28;10660;-61
2022/11/26 02:38:33;;;;;;;;;;;;;;;24.33;46.36;95258.63;4954107;28;6933;-62
2022/11/26 02:41:14;;;;;;;;;;;;;;;24.30;46.30;95260.34;4949777;28;9144;-61
2022/11/26 02:43:42;;;;;;;;;;;;;;;24.33;46.25;95267.66;4921263;29;9330;-61
2022/11/26 02:46:15;;;;;;;;;;;;;;;24.32;46.62;95265.34;4926708;29;9829;-61
2022/11/26 02:48:47;;;;;;;;;;;;;;;24.32;46.29;95276.34;4938459;29;7042;-61
2022/11/26 02:51:26;;;;;;;;;;;;;;;24.32;45.88;95279.88;4938149;29;9295;-61
2022/11/26 02:54:22;;;;;;;;;;;;;;;24.33;46.25;95272.38;4950450;29;7049;-61
2022/11/26 02:56:51;;;;;;;;;;;;;;;24.33;45.67;95284.16;4928104;29;7433;-61
2022/11/26 02:59:20;;;;;;;;;;;;;;;24.33;46.39;95294.38;4917108;29;7244;-61
2022/11/26 03:01:52;;;;;;;;;;;;;;;24.33;46.04;95294.38;4932755;29;7044;-61
2022/11/26 03:04:41;;;;;;;;;;;;;;;24.32;46.44;95285.38;4916178;29;7175;-61
2022/11/26 03:07:37;;;;;;;;;;;;;;;24.33;46.37;95288.88;4932003;29;9668;-62
2022/11/26 03:10:04;;;;;;;;;;;;;;;24.32;46.27;95293.63;4912345;29;9022;-61
2022/11/26 03:12:38;;;;;;;;;;;;;;;24.31;45.86;95300.38;4911899;29;7267;-61
2022/11/26 03:15:15;;;;;;;;;;;;;;;24.31;46.36;95297.63;4915271;29;8712;-61
2022/11/26 03:17:50;;;;;;;;;;;;;;;24.31;45.97;95305.09;4909591;29;6878;-62
2022/11/26 03:20:29;;;;;;;;;;;;;;;24.31;45.69;95302.34;4911520;29;7239;-62
2022/11/26 03:23:08;;;;;;;;;;;;;;;24.32;45.56;95304.59;4920004;29;7320;-62
2022/11/26 03:25:44;;;;;;;;;;;;;;;24.31;46.43;95314.09;4913422;29;7275;-62
2022/11/26 03:28:11;;;;;;;;;;;;;;;24.30;46.32;95306.31;4897694;29;7479;-62
2022/11/26 03:30:48;;;;;;;;;;;;;;;24.32;45.82;95315.59;4922453;29;8193;-62
2022/11/26 03:33:50;;;;;;;;;;;;;;;24.32;46.66;95315.59;4944890;28;7496;-62
2022/11/26 03:36:16;;;;;;;;;;;;;;;24.32;46.42;95323.09;4988519;28;8438;-62
2022/11/26 03:39:13;;;;;;;;;;;;;;;24.31;45.90;95318.84;4981589;28;7473;-62
2022/11/26 03:41:43;;;;;;;;;;;;;;;24.30;46.46;95312.59;4962748;28;8875;-62
2022/11/26 03:44:12;;;;;;;;;;;;;;;24.32;45.63;95314.84;4985339;28;7105;-62
2022/11/26 03:46:39;;;;;;;;;;;;;;;24.28;45.92;95315.06;4979770;28;7287;-62
2022/11/26 03:49:07;;;;;;;;;;;;;;;24.32;46.47;95328.59;4970735;28;7244;-62
2022/11/26 03:51:34;;;;;;;;;;;;;;;24.31;46.23;95327.84;4992700;28;8337;-62
2022/11/26 03:54:10;;;;;;;;;;;;;;;24.30;45.55;95323.59;4971319;28;7038;-62
2022/11/26 03:56:36;;;;;;;;;;;;;;;24.32;45.75;95331.34;4967604;28;7390;-62
2022/11/26 03:59:05;;;;;;;;;;;;;;;24.33;46.14;95332.88;4970362;28;7027;-62
2022/11/26 04:02:05;;;;;;;;;;;;;;;24.30;46.28;95326.34;4971039;28;7279;-62
2022/11/26 04:04:42;;;;;;;;;;;;;;;24.31;45.63;95332.59;4966767;28;8869;-61
2022/11/26 04:07:08;;;;;;;;;;;;;;;24.32;46.02;95342.34;4955878;28;7066;-61
2022/11/26 04:09:38;;;;;;;;;;;;;;;24.32;45.67;95336.84;4972247;28;10227;-62
2022/11/26 04:12:05;;;;;;;;;;;;;;;24.30;46.23;95329.09;4956380;28;7134;-62
2022/11/26 04:14:42;;;;;;;;;;;;;;;24.30;46.23;95322.81;4955069;28;7457;-62
2022/11/26 04:17:08;;;;;;;;;;;;;;;24.30;45.87;95326.34;4961986;28;8751;-62
2022/11/26 04:20:20;;;;;;;;;;;;;;;24.31;46.36;95322.34;5007746;28;7142;-62
2022/11/26 04:22:49;;;;;;;;;;;;;;;24.31;46.37;95314.09;4951538;28;7375;-62
2022/11/26 04:25:15;;;;;;;;;;;;;;;24.32;46.28;95309.34;4929646;29;7317;-62
2022/11/26 04:27:43;;;;;;;;;;;;;;;24.30;45.79;95307.09;4928286;28;7279;-61
2022/11/26 04:30:09;;;;;;;;;;;;;;;24.32;46.13;95312.84;4919441;28;8994;-61
2022/11/26 04:32:38;;;;;;;;;;;;;;;24.32;45.93;95315.59;4933688;29;7940;-62
2022/11/26 04:35:06;;;;;;;;;;;;;;;24.32;46.01;95315.59;4920598;29;7057;-62
2022/11/26 04:37:34;;;;;;;;;;;;;;;24.32;45.88;95310.09;4933257;29;7341;-62
2022/11/26 04:40:00;;;;;;;;;;;;;;;24.30;46.05;95307.09;4936663;28;7542;-59
2022/11/26 04:42:28;;;;;;;;;;;;;;;24.29;45.86;95311.09;4924850;28;7320;-59
2022/11/26 04:44:59;;;;;;;;;;;;;;;24.30;45.96;95304.34;4931867;28;7133;-59
2022/11/26 04:47:25;;;;;;;;;;;;;;;24.29;46.07;95310.31;4945517;28;8676;-59
2022/11/26 04:49:51;;;;;;;;;;;;;;;24.29;45.63;95299.31;4936854;28;8718;-59
2022/11/26 04:52:43;;;;;;;;;;;;;;;24.31;45.53;95303.13;4941107;28;7449;-59
2022/11/26 04:55:14;;;;;;;;;;;;;;;24.30;45.50;95304.34;4937467;28;9353;-59
2022/11/26 04:57:41;;;;;;;;;;;;;;;24.29;46.22;95308.34;4926198;28;9070;-59
2022/11/26 05:00:17;;;;;;;;;;;;;;;24.30;46.43;95312.59;4997560;28;7258;-59
2022/11/26 05:02:53;;;;;;;;;;;;;;;24.29;46.25;95308.34;5028465;28;8740;-59
2022/11/26 05:05:39;;;;;;;;;;;;;;;24.30;45.41;95312.59;5017388;28;7185;-59
2022/11/26 05:08:09;;;;;;;;;;;;;;;24.29;46.61;95318.56;5015114;28;7219;-59
2022/11/26 05:10:40;;;;;;;;;;;;;;;24.30;46.32;95317.31;5030755;28;7256;-59
2022/11/26 05:13:11;;;;;;;;;;;;;;;24.28;46.01;95323.31;5032574;28;7060;-59
2022/11/26 05:15:38;;;;;;;;;;;;;;;24.31;45.89;95325.09;5021594;28;9116;-59
2022/11/26 05:18:05;;;;;;;;;;;;;;;24.31;46.28;95325.09;5027178;28;6867;-59
2022/11/26 05:20:31;;;;;;;;;;;;;;;24.30;46.22;95323.59;5028057;28;9161;-61
2022/11/26 05:22:57;;;;;;;;;;;;;;;24.30;46.11;95322.81;5032756;28;7400;-61
2022/11/26 05:25:23;;;;;;;;;;;;;;;24.30;45.57;95329.09;5019634;28;7346;-61
2022/11/26 05:27:51;;;;;;;;;;;;;;;24.30;46.16;95323.59;5027436;28;7049;-61
2022/11/26 05:30:17;;;;;;;;;;;;;;;24.30;45.67;95325.56;5022406;28;7382;-61
2022/11/26 05:32:45;;;;;;;;;;;;;;;24.31;45.69;95324.34;5018593;28;7882;-61
2022/11/26 05:35:17;;;;;;;;;;;;;;;24.30;46.04;95329.09;5022517;28;7033;-61
2022/11/26 05:37:45;;;;;;;;;;;;;;;24.28;45.83;95331.56;5028472;28;7244;-61
2022/11/26 05:40:37;;;;;;;;;;;;;;;24.30;45.46;95329.09;5013949;28;7270;-61
2022/11/26 05:43:03;;;;;;;;;;;;;;;24.30;46.04;95325.56;5041450;28;7505;-61
2022/11/26 05:45:29;;;;;;;;;;;;;;;24.29;46.03;95324.84;5016285;28;7276;-60
2022/11/26 05:47:55;;;;;;;;;;;;;;;24.30;45.83;95326.34;5023872;28;7202;-60
2022/11/26 05:50:23;;;;;;;;;;;;;;;24.27;46.13;95319.03;5029472;28;7299;-60
2022/11/26 05:52:55;;;;;;;;;;;;;;;24.29;45.91;95327.59;5024420;28;9063;-60
2022/11/26 05:55:37;;;;;;;;;;;;;;;24.30;46.06;95329.09;5020294;28;7281;-60
2022/11/26 05:58:08;;;;;;;;;;;;;;;24.30;45.61;95328.31;5039576;28;8484;-60
2022/11/26 06:01:19;;;;;;;;;;;;;;;24.28;45.51;95326.06;5012844;28;7070;-60
2022/11/26 06:03:45;;;;;;;;;;;;;;;24.25;45.67;95321.50;4999074;28;7332;-60
2022/11/26 06:06:23;;;;;;;;;;;;;;;24.28;45.58;95323.31;4985704;28;9264;-61
2022/11/26 06:08:51;;;;;;;;;;;;;;;24.30;45.81;95328.31;4988898;28;7396;-61
2022/11/26 06:11:23;;;;;;;;;;;;;;;24.30;45.72;95331.81;4992543;28;7267;-61
2022/11/26 06:14:09;;;;;;;;;;;;;;;24.30;45.69;95337.31;4981353;28;8730;-61
2022/11/26 06:16:48;;;;;;;;;;;;;;;24.31;46.06;95338.84;4986197;28;7258;-60
2022/11/26 06:19:16;;;;;;;;;;;;;;;24.31;45.28;95338.09;4997189;28;9002;-60
2022/11/26 06:22:01;;;;;;;;;;;;;;;24.31;45.73;95347.09;5000188;28;9495;-61
2022/11/26 06:24:37;;;;;;;;;;;;;;;24.30;45.88;95348.31;4984802;28;7289;-60
2022/11/26 06:27:07;;;;;;;;;;;;;;;24.30;45.88;95355.81;4981168;28;7230;-60
2022/11/26 06:29:42;;;;;;;;;;;;;;;24.29;46.01;95359.81;4985356;28;7239;-60
2022/11/26 06:32:08;;;;;;;;;;;;;;;24.29;45.66;95365.31;4982654;28;7349;-61
2022/11/26 06:34:45;;;;;;;;;;;;;;;24.28;45.78;95367.28;4983628;28;7110;-61
2022/11/26 06:37:43;;;;;;;;;;;;;;;24.29;45.51;95371.56;4984543;28;7378;-61
2022/11/26 06:40:16;;;;;;;;;;;;;;;24.29;45.76;95368.81;5006639;28;7271;-60
2022/11/26 06:42:47;;;;;;;;;;;;;;;24.30;46.29;95375.06;5024130;28;7014;-60
2022/11/26 06:45:13;;;;;;;;;;;;;;;24.31;46.04;95374.59;5022519;28;7349;-60
2022/11/26 06:47:38;;;;;;;;;;;;;;;24.31;45.48;95374.59;5030211;28;8955;-60
2022/11/26 06:50:08;;;;;;;;;;;;;;;24.31;45.44;95374.59;5022855;28;8566;-61
2022/11/26 06:52:43;;;;;;;;;;;;;;;24.31;45.54;95371.84;5013339;28;7377;-61
2022/11/26 06:55:34;;;;;;;;;;;;;;;24.32;45.52;95380.81;5012203;28;8985;-62
2022/11/26 06:57:59;;;;;;;;;;;;;;;24.29;45.56;95366.06;5027867;28;7124;-61
2022/11/26 07:00:25;;;;;;;;;;;;;;;24.32;45.92;95375.31;5022811;28;7359;-61
2022/11/26 07:02:54;;;;;;;;;;;;;;;24.30;45.92;95380.56;5026130;28;7163;-61
2022/11/26 07:05:22;;;;;;;;;;;;;;;24.29;45.56;95381.81;5011914;28;7037;-62
2022/11/26 07:07:56;;;;;;;;;;;;;;;24.34;45.66;95389.34;5020776;28;7330;-62
2022/11/26 07:10:31;;;;;;;;;;;;;;;24.40;45.40;95393.69;5022588;28;8683;-62
2022/11/26 07:12:57;;;;;;;;;;;;;;;24.43;44.88;95398.25;5016846;28;7206;-62
2022/11/26 07:15:23;;;;;;;;;;;;;;;24.47;44.40;95406.28;5020987;28;9014;-61
2022/11/26 07:17:51;;;;;;;;;;;;;;;24.49;44.20;95401.81;5013340;28;7144;-62
2022/11/26 07:20:24;;;;;;;;;;;;;;;24.49;43.30;95401.81;5032126;28;7305;-62
2022/11/26 07:22:51;;;;;;;;;;;;;;;24.44;43.53;95394.28;5028865;28;7188;-62
2022/11/26 07:25:26;;;;;;;;;;;;;;;24.42;44.06;95402.25;5024556;28;7277;-62
2022/11/26 07:28:01;;;;;;;;;;;;;;;24.43;44.34;95405.72;5018949;28;7278;-62
2022/11/26 07:30:38;;;;;;;;;;;;;;;24.45;44.15;95404.03;5017974;28;7468;-61
2022/11/26 07:33:04;;;;;;;;;;;;;;;24.42;44.04;95396.75;5039067;28;7283;-61
2022/11/26 07:35:41;;;;;;;;;;;;;;;24.46;44.69;95408.31;5028034;28;8186;-60
2022/11/26 07:38:09;;;;;;;;;;;;;;;24.48;44.40;95405.81;5043117;28;7099;-60
2022/11/26 07:40:38;;;;;;;;;;;;;;;24.51;44.22;95402.09;5023854;28;9554;-60
2022/11/26 07:43:04;;;;;;;;;;;;;;;24.52;44.14;95414.63;5028862;28;7378;-59
2022/11/26 07:45:30;;;;;;;;;;;;;;;24.52;44.31;95420.13;5015223;28;7379;-59
2022/11/26 07:47:56;;;;;;;;;;;;;;;24.54;43.96;95430.66;5024730;28;7198;-60
2022/11/26 07:50:48;;;;;;;;;;;;;;;24.51;44.85;95421.34;5021033;28;7026;-60
2022/11/26 07:53:23;;;;;;;;;;;;;;;24.49;44.32;95434.09;5028611;28;7354;-60
2022/11/26 07:55:59;;;;;;;;;;;;;;;24.48;44.60;95436.09;5027620;28;7260;-60
2022/11/26 07:58:28;;;;;;;;;;;;;;;24.47;45.27;95436.53;5021126;28;7754;-60
2022/11/26 08:01:13;;;;;;;;;;;;;;;24.46;44.55;95437.78;5018541;28;9304;-60
2022/11/26 08:03:50;;;;;;;;;;;;;;;24.44;45.28;95443.78;5021121;28;7198;-60
2022/11/26 08:06:22;;;;;;;;;;;;;;;24.44;44.98;95438.28;5026206;28;7436;-61
2022/11/26 08:08:50;;;;;;;;;;;;;;;24.43;45.40;95442.25;5025710;28;7309;-62
2022/11/26 08:11:30;;;;;;;;;;;;;;;24.43;45.85;95445.00;5023630;28;7191;-62
2022/11/26 08:14:15;;;;;;;;;;;;;;;24.44;45.80;95448.50;5022152;28;7138;-62
2022/11/26 08:16:41;;;;;;;;;;;;;;;24.43;45.64;95438.72;5027618;28;7718;-62
2022/11/26 08:19:13;;;;;;;;;;;;;;;24.41;46.22;95436.47;5027417;28;7046;-62
2022/11/26 08:21:40;;;;;;;;;;;;;;;24.42;45.38;95446.25;5036805;28;9216;-62
2022/11/26 08:24:38;;;;;;;;;;;;;;;24.45;45.71;95450.78;5020927;28;7183;-62
2022/11/26 08:27:09;;;;;;;;;;;;;;;24.45;46.09;95458.25;5003750;28;7422;-61
2022/11/26 08:29:38;;;;;;;;;;;;;;;24.51;45.48;95459.13;5007597;28;7437;-62
2022/11/26 08:32:19;;;;;;;;;;;;;;;24.53;44.75;95454.63;4988896;28;9369;-61
2022/11/26 08:34:55;;;;;;;;;;;;;;;24.52;45.64;95455.88;4983547;28;9081;-61
2022/11/26 08:37:21;;;;;;;;;;;;;;;24.52;45.48;95455.88;4993137;28;7205;-62
2022/11/26 08:39:59;;;;;;;;;;;;;;;24.52;45.08;95446.88;5003133;28;8905;-61
2022/11/26 08:42:34;;;;;;;;;;;;;;;24.53;45.19;95454.63;5001422;28;7440;-62
2022/11/26 08:45:04;;;;;;;;;;;;;;;24.53;45.21;95453.91;4983732;28;7523;-61
2022/11/26 08:47:35;;;;;;;;;;;;;;;24.51;45.34;95459.84;4986234;28;8205;-61
2022/11/26 08:50:00;;;;;;;;;;;;;;;24.51;45.21;95462.59;4988526;28;7452;-61
2022/11/26 08:52:27;;;;;;;;;;;;;;;24.53;45.54;95465.63;4999638;28;7155;-62
2022/11/26 08:55:07;;;;;;;;;;;;;;;24.56;46.33;95472.19;4995573;28;7033;-61
2022/11/26 08:57:42;;;;;;;;;;;;;;;24.56;45.18;95467.44;4992367;28;9432;-62
2022/11/26 09:00:10;;;;;;;;;;;;;;;24.58;45.69;95459.47;5001958;28;7352;-62
2022/11/26 09:02:36;;;;;;;;;;;;;;;24.57;45.34;95457.19;4989850;28;7275;-61
2022/11/26 09:05:07;;;;;;;;;;;;;;;24.59;45.76;95469.25;5021696;28;7416;-61
2022/11/26 09:07:42;;;;;;;;;;;;;;;24.62;45.18;95460.03;5016583;28;7455;-61
2022/11/26 09:10:09;;;;;;;;;;;;;;;24.66;45.84;95463.31;5024644;28;7297;-61
2022/11/26 09:12:50;;;;;;;;;;;;;;;24.71;45.04;95457.16;5031560;28;9344;-60
2022/11/26 09:15:16;;;;;;;;;;;;;;;24.76;45.47;95463.22;5034042;28;7340;-61
2022/11/26 09:18:16;;;;;;;;;;;;;;;24.71;44.63;95456.38;5019380;28;7184;-61
2022/11/26 09:21:03;;;;;;;;;;;;;;;24.67;45.22;95461.34;4992637;28;8694;-61
2022/11/26 09:23:37;;;;;;;;;;;;;;;24.63;44.90;95467.06;4995729;28;7296;-61
2022/11/26 09:26:03;;;;;;;;;;;;;;;24.62;48.97;95475.78;4981393;28;7377;-61
2022/11/26 09:28:42;;;;;;;;;;;;;;;24.62;46.16;95476.53;4979894;28;7073;-60
2022/11/26 09:31:21;;;;;;;;;;;;;;;24.63;46.19;95478.06;4988809;28;8744;-61
2022/11/26 09:33:47;;;;;;;;;;;;;;;24.61;45.54;95469.53;4999220;28;7363;-61
2022/11/26 09:36:17;;;;;;;;;;;;;;;24.64;45.71;95471.31;4992163;28;8944;-61
2022/11/26 09:38:52;;;;;;;;;;;;;;;24.67;45.60;95478.59;4989765;28;7268;-61
2022/11/26 09:41:44;;;;;;;;;;;;;;;24.67;44.11;95486.84;4996406;28;7064;-60
2022/11/26 09:44:47;;;;;;;;;;;;;;;24.65;44.45;95485.81;4983778;28;9495;-61
2022/11/26 09:47:19;;;;;;;;;;;;;;;24.61;44.53;95477.78;4991365;28;7229;-61
2022/11/26 09:50:09;;;;;;;;;;;;;;;24.61;44.89;95490.78;4968580;28;7702;-61
2022/11/26 09:53:13;;;;;;;;;;;;;;;24.59;45.35;95491.25;4975515;28;9668;-61
2022/11/26 09:55:46;;;;;;;;;;;;;;;24.55;45.11;95492.69;4984657;28;8964;-61
2022/11/26 09:58:43;;;;;;;;;;;;;;;24.56;44.97;95486.69;5036410;28;7044;-61
2022/11/26 10:01:17;;;;;;;;;;;;;;;24.56;45.09;95485.94;5015241;28;7041;-61
2022/11/26 10:03:56;;;;;;;;;;;;;;;24.54;44.75;95497.41;5021722;28;7196;-61
2022/11/26 10:06:43;;;;;;;;;;;;;;;24.55;45.46;95492.69;5016387;28;9085;-61
2022/11/26 10:09:34;;;;;;;;;;;;;;;24.55;44.81;95490.69;5023744;28;7130;-61
2022/11/26 10:12:39;;;;;;;;;;;;;;;24.55;45.74;95487.94;5021500;28;7456;-61
2022/11/26 10:15:52;;;;;;;;;;;;;;;24.54;45.10;95486.41;5029896;28;7045;-61
2022/11/26 10:18:59;;;;;;;;;;;;;;;24.54;45.70;95486.41;5014406;28;7025;-61
2022/11/26 10:21:43;;;;;;;;;;;;;;;24.53;45.23;95484.16;5028476;28;10398;-61
2022/11/26 10:24:31;;;;;;;;;;;;;;;24.52;45.70;95483.38;5015114;28;7036;-61
2022/11/26 10:27:08;;;;;;;;;;;;;;;24.53;45.47;95482.13;5027984;28;7280;-61
2022/11/26 10:30:16;;;;;;;;;;;;;;;24.54;45.15;95480.91;5021740;28;7382;-61
2022/11/26 10:33:05;;;;;;;;;;;;;;;24.54;45.74;95477.41;5028357;28;7797;-61
2022/11/26 10:35:50;;;;;;;;;;;;;;;24.53;45.48;95473.88;5026012;28;7341;-61
2022/11/26 10:38:16;;;;;;;;;;;;;;;24.53;45.73;95470.41;5030225;28;7249;-61
2022/11/26 10:40:52;;;;;;;;;;;;;;;24.52;45.95;95466.88;5013326;28;8767;-61
2022/11/26 10:43:22;;;;;;;;;;;;;;;24.52;45.83;95466.13;5029995;28;7038;-61
2022/11/26 10:45:53;;;;;;;;;;;;;;;24.52;45.87;95469.63;5029511;28;7113;-61
2022/11/26 10:48:28;;;;;;;;;;;;;;;24.53;45.73;95464.91;5026387;28;7079;-61
2022/11/26 10:55:26;;;;;;;;;;;;;;;24.55;45.34;95449.44;5032704;28;7099;-61
2022/11/26 10:58:01;;;;;;;;;;;;;;;24.52;46.07;95447.63;5003102;28;7466;-61
2022/11/26 11:00:36;;;;;;;;;;;;;;;24.52;45.45;95444.88;5025628;28;7304;-61
2022/11/26 11:03:20;;;;;;;;;;;;;;;24.53;45.36;95449.13;5032151;28;8508;-60
2022/11/26 11:06:11;;;;;;;;;;;;;;;24.54;45.62;95444.41;5009117;28;7213;-60
2022/11/26 11:08:37;;;;;;;;;;;;;;;24.57;45.06;95451.69;5015120;28;7268;-61
2022/11/26 11:11:06;;;;;;;;;;;;;;;24.59;45.62;95446.47;5018085;28;7247;-61
2022/11/26 11:14:21;;;;;;;;;;;;;;;24.62;45.51;95445.53;4999795;28;7137;-61
2022/11/26 11:16:49;;;;;;;;;;;;;;;24.60;45.50;95446.00;5018453;28;8507;-61
2022/11/26 11:19:35;;;;;;;;;;;;;;;24.67;45.05;95436.59;5026314;28;9407;-61
2022/11/26 11:22:32;;;;;;;;;;;;;;;24.74;44.72;95433.44;5012972;28;7034;-61
2022/11/26 11:24:59;;;;;;;;;;;;;;;24.79;44.87;95430.03;4933168;29;7147;-61
2022/11/26 11:27:38;;;;;;;;;;;;;;;24.86;44.83;95429.59;4931704;29;7098;-61
2022/11/26 11:30:37;;;;;;;;;;;;;;;24.90;44.45;95423.91;4931205;29;6860;-61
2022/11/26 11:33:11;;;;;;;;;;;;;;;24.91;44.28;95420.66;4844439;29;9538;-61
2022/11/26 11:35:41;;;;;;;;;;;;;;;24.94;45.19;95418.97;4861163;29;9688;-61
2022/11/26 11:38:27;;;;;;;;;;;;;;;24.96;45.32;95416.47;4853455;29;7212;-61
2022/11/26 11:40:56;;;;;;;;;;;;;;;24.99;44.67;95412.78;4858185;29;9093;-61
2022/11/26 11:43:24;;;;;;;;;;;;;;;24.99;44.55;95410.03;4857939;29;9280;-61
2022/11/26 11:46:12;;;;;;;;;;;;;;;25.01;44.61;95407.53;4844072;29;7045;-61
2022/11/26 11:49:07;;;;;;;;;;;;;;;25.01;45.04;95402.03;4860742;29;7922;-61
2022/11/26 11:52:17;;;;;;;;;;;;;;;25.04;44.64;95406.56;4852978;29;7283;-61
2022/11/26 11:55:09;;;;;;;;;;;;;;;25.05;44.90;95405.34;4818641;29;9049;-61
2022/11/26 11:57:44;;;;;;;;;;;;;;;25.05;44.78;95406.09;4807963;29;7388;-61
2022/11/26 12:00:17;;;;;;;;;;;;;;;25.06;44.93;95407.59;4797156;29;7529;-61
2022/11/26 12:03:23;;;;;;;;;;;;;;;25.08;44.82;95399.59;4898166;29;7401;-61
2022/11/26 12:06:26;;;;;;;;;;;;;;;25.10;44.85;95399.16;4876906;29;9133;-61
2022/11/26 12:08:55;;;;;;;;;;;;;;;25.12;45.03;95397.41;4893475;29;7901;-61
2022/11/26 12:11:26;;;;;;;;;;;;;;;25.10;44.72;95390.88;4942704;28;7444;-61
2022/11/26 12:14:11;;;;;;;;;;;;;;;25.13;45.20;95392.66;4955374;28;7558;-61
2022/11/26 12:17:01;;;;;;;;;;;;;;;25.15;45.43;95388.19;4938086;28;7261;-61
2022/11/26 12:19:51;;;;;;;;;;;;;;;25.17;45.63;95393.97;4955047;28;9015;-61
2022/11/26 12:22:48;;;;;;;;;;;;;;;25.19;45.35;95393.47;4938678;28;7281;-61
2022/11/26 12:25:35;;;;;;;;;;;;;;;25.20;44.69;95395.00;4931763;28;7053;-61
2022/11/26 12:28:05;;;;;;;;;;;;;;;25.22;44.80;95387.75;4936394;28;9056;-61
2022/11/26 12:31:02;;;;;;;;;;;;;;;25.24;45.59;95398.28;4939806;28;7093;-61
2022/11/26 12:33:51;;;;;;;;;;;;;;;25.24;45.15;95390.03;5022341;28;7246;-61
2022/11/26 12:36:55;;;;;;;;;;;;;;;25.26;45.19;95391.06;5014566;28;9504;-61
2022/11/26 12:39:44;;;;;;;;;;;;;;;25.29;44.65;95392.81;5013658;28;7267;-61
2022/11/26 12:42:29;;;;;;;;;;;;;;;25.31;45.16;95387.63;5027957;28;9425;-60
2022/11/26 12:45:16;;;;;;;;;;;;;;;25.34;45.15;95396.88;5014646;28;8891;-61
2022/11/26 12:47:52;;;;;;;;;;;;;;;25.33;44.90;95384.38;5018893;28;7071;-61
2022/11/26 12:50:24;;;;;;;;;;;;;;;25.38;45.28;95395.44;5020910;28;7058;-60
2022/11/26 12:53:43;;;;;;;;;;;;;;;25.40;44.37;95389.47;5040206;28;7281;-61
2022/11/26 12:56:30;;;;;;;;;;;;;;;25.42;44.81;95396.00;5005733;28;7016;-61
2022/11/26 12:58:56;;;;;;;;;;;;;;;25.45;45.01;95399.03;4996314;28;9164;-61
2022/11/26 13:01:33;;;;;;;;;;;;;;;25.47;45.02;95391.06;5006881;28;7038;-61
2022/11/26 13:04:01;;;;;;;;;;;;;;;25.50;44.23;95399.09;5007262;28;9301;-61
2022/11/26 13:06:33;;;;;;;;;;;;;;;25.55;44.41;95401.16;4990175;28;9463;-61
2022/11/26 13:09:06;;;;;;;;;;;;;;;25.56;45.29;95401.88;5002483;28;10867;-61
2022/11/26 13:11:56;;;;;;;;;;;;;;;25.59;44.48;95407.19;5006480;28;8441;-61
2022/11/26 13:14:39;;;;;;;;;;;;;;;25.64;44.01;95408.50;5005031;28;8232;-61
2022/11/26 13:17:39;;;;;;;;;;;;;;;25.66;44.96;95404.00;4995698;28;7242;-61
2022/11/26 13:20:20;;;;;;;;;;;;;;;25.68;44.27;95398.78;5010393;28;9261;-60
2022/11/26 13:23:34;;;;;;;;;;;;;;;25.72;44.01;95409.56;5003339;28;8691;-60
2022/11/26 13:26:15;;;;;;;;;;;;;;;25.75;44.78;95405.84;4997462;28;7041;-61
2022/11/26 13:29:10;;;;;;;;;;;;;;;25.78;44.41;95402.09;5023669;28;9257;-61
2022/11/26 13:32:12;;;;;;;;;;;;;;;25.80;44.54;95399.59;5021993;28;8870;-61
2022/11/26 13:34:57;;;;;;;;;;;;;;;25.83;44.60;95393.13;5032234;28;7969;-61
2022/11/26 13:37:38;;;;;;;;;;;;;;;25.87;44.65;95393.66;5022700;28;8647;-61
2022/11/26 13:40:38;;;;;;;;;;;;;;;25.87;43.82;95388.91;5030712;28;7128;-61
2022/11/26 13:46:47;;;;;;;;;;;;;;;25.88;44.51;95376.63;5005531;28;7617;-61
2022/11/26 13:49:18;;;;;;;;;;;;;;;25.87;43.89;95377.88;4994963;28;8937;-61
2022/11/26 13:52:04;;;;;;;;;;;;;;;25.90;44.12;95373.41;4997268;28;7279;-61
2022/11/26 13:55:31;;;;;;;;;;;;;;;25.91;43.56;95361.88;4985843;28;7297;-60
2022/11/26 13:58:04;;;;;;;;;;;;;;;25.91;44.03;95374.91;4958850;28;7101;-61
2022/11/26 14:00:39;;;;;;;;;;;;;;;25.92;43.91;95373.66;4954941;28;7387;-61
2022/11/26 14:07:05;;;;;;;;;;;;;;;25.91;44.56;95367.38;4938829;28;7455;-61